Airfield :
LOGIN :

Register | Disclaimer

   EN    FR    IT 

 










Legend :    VFR   Marginal VFR   IFR   Intensive IFR   Very Intensive IFR
Visi :
Ceiling :
>= 8 km
>= 3000ft
5 to 8 km
1000 to 3000 ft
1500m to 5 km
500 to 1000 ft
800 to 1500m
200 to 500 ft
< 800m
< 200 ft
Symbols :   Thunderstorms  Fog  Heavy snow  Heavy precipitations  Wind > 20 kt
SIGMETs :     Misc.  Thunderstorms  Icing  Turbulence  Mountain Waves  Volcanic Ashes







- Airport Elevation : 510 ft


LJCE - Cerklje

CURRENT METAR :
  • 211500Z AUTO 08007KT 9999 NCD 25/09 Q1018

EXPIRED METARs :
  • 211430Z AUTO 08006KT 050V110 9999 NCD 25/09 Q1018
  • 211400Z AUTO 08006KT 9999 NCD 25/07 Q1018
  • 211330Z AUTO 06004KT 010V100 9999 NCD 25/08 Q1019
  • 211300Z 06005KT 010V100 CAVOK 25/08 Q1019 RMK BLU
  • 211230Z 06006KT 010V100 CAVOK 25/07 Q1019 RMK BLU

TAF TAF LJCE
Valid from the 21 at 15:00 until the 22 at 00:00 UTC


211400Z 2115/2124 09005KT CAVOK
BECMG 2116/2118 VRB02KT
No reported NOTAMs for that airfield.



MET'MAP, your aeronautical weather chart ! - Copyright ORBIFLY December 2007 - Disclaimer

ORBIFLY MET'MAP TEAM :

Programming & Development : Alexandra Zaïnal
Concept & Development : Baudouin d'Aumeries
Co-Development & Prog : Marc-Olivier Méhu
Technical & hardware support : Manuel Goepfert

Contact : metmap@orbifly.com




SOURCES & CREDITS :

   NOAA